PWSweather.com
Personal Weather Stations
Station Observations
BUCO1953
Cerklje Na GorenjskemSI

Cerklje Na GorenjskemSI

Lat: 46.2556, Lon: 14.5172

Elevation: 1312

Station Type: WS3600

High Low Average
Temperature 47.8°F8.8°C 29.1°F-1.6°C 39.4°F4.1°C
Dew Point 32.9°F0.5°C 13.9°F-10.1°C 22.5°F-5.3°C
Winds 9.7 mph 15.6 kmh Calm Calm 3.0 mph SSE4.8 kmh SSE
Wind Gusts 22.8 mph36.7 kmh -- 7.0 mph11.3 kmh
Humidity 90% 29% 55%
Pressure 29.49 in998.6 mb 28.92 in979.3 mb -
Precipitation 0.02 in0.5 mm - -
Hour Temp Dew Point Humidity Winds Wind Gusts Pressure Precip Precip Rate Daily Precip Total
12:03 AM 31.2°F-0.4°C 28.1°F-2.2°C 88% 0.8 mph NNW1.3 kmh NNW 0.8 mph1.3 kmh 28.92 in979.3 mb 0.06 in1.5 mm 1.20 in/hr30.5 mm/hr 0.06 in1.5 mm
12:08 AM 31.2°F-0.4°C 28.1°F-2.2°C 88% 0.8 mph NNW1.3 kmh NNW 0.8 mph1.3 kmh 28.92 in979.3 mb 0.06 in1.5 mm 0.00 in/hr0.0 mm/hr 0.06 in1.5 mm
12:10 AM 31.2°F-0.4°C 28.1°F-2.2°C 88% 0.8 mph NNW1.3 kmh NNW 0.8 mph1.3 kmh 28.92 in979.3 mb 0.06 in1.5 mm 0.00 in/hr0.0 mm/hr 0.06 in1.5 mm
12:37 AM 30.7°F-0.7°C 27.6°F-2.4°C 88% 1.5 mph E2.4 kmh E 1.5 mph2.4 kmh 28.93 in979.7 mb 0.06 in1.5 mm 0.00 in/hr0.0 mm/hr 0.06 in1.5 mm
12:42 AM 30.9°F-0.6°C 27.8°F-2.3°C 88% 2.5 mph ENE4.0 kmh ENE 2.9 mph4.7 kmh 28.93 in979.7 mb 0.06 in1.5 mm 0.00 in/hr0.0 mm/hr 0.06 in1.5 mm
12:47 AM 31.2°F-0.4°C 28.4°F-2.0°C 89% 2.0 mph ENE3.2 kmh ENE 2.9 mph4.7 kmh 28.94 in980.0 mb 0.06 in1.5 mm 0.00 in/hr0.0 mm/hr 0.06 in1.5 mm
12:52 AM 31.1°F-0.5°C 28.2°F-2.1°C 89% Calm Calm 2.2 mph3.5 kmh 28.94 in980.0 mb 0.00 in0.0 mm 0.00 in/hr0.0 mm/hr 0.06 in1.5 mm
12:57 AM 30.9°F-0.6°C 28.1°F-2.2°C 89% 1.5 mph ENE2.4 kmh ENE 1.5 mph2.4 kmh 28.95 in980.4 mb 0.00 in0.0 mm 0.00 in/hr0.0 mm/hr 0.06 in1.5 mm
01:02 AM 30.9°F-0.6°C 28.1°F-2.2°C 89% 0.4 mph ENE0.6 kmh ENE 2.4 mph3.9 kmh 28.95 in980.4 mb 0.00 in0.0 mm 0.00 in/hr0.0 mm/hr 0.06 in1.5 mm
01:09 AM 30.5°F-0.8°C 27.7°F-2.4°C 89% 0.4 mph ENE0.6 kmh ENE 2.4 mph3.9 kmh 28.96 in980.7 mb 0.00 in0.0 mm 0.00 in/hr0.0 mm/hr 0.06 in1.5 mm
01:14 AM 30.3°F-0.9°C 27.5°F-2.5°C 89% 1.5 mph ENE2.4 kmh ENE 2.2 mph3.5 kmh 28.95 in980.4 mb 0.00 in0.0 mm 0.00 in/hr0.0 mm/hr 0.06 in1.5 mm
01:19 AM 30.3°F-0.9°C 27.5°F-2.5°C 89% Calm Calm 1.5 mph2.4 kmh 28.95 in980.4 mb 0.00 in0.0 mm 0.00 in/hr0.0 mm/hr 0.06 in1.5 mm
01:24 AM 29.8°F-1.2°C 27.0°F-2.8°C 89% Calm Calm 0.6 mph1.0 kmh 28.95 in980.4 mb 0.00 in0.0 mm 0.00 in/hr0.0 mm/hr 0.06 in1.5 mm
01:29 AM 30.0°F-1.1°C 27.2°F-2.7°C 89% 0.9 mph ENE1.4 kmh ENE 1.5 mph2.4 kmh 28.95 in980.4 mb 0.00 in0.0 mm 0.00 in/hr0.0 mm/hr 0.06 in1.5 mm
01:34 AM 30.0°F-1.1°C 27.2°F-2.7°C 89% 0.4 mph ENE0.6 kmh ENE 1.5 mph2.4 kmh 28.95 in980.4 mb 0.00 in0.0 mm 0.00 in/hr0.0 mm/hr 0.06 in1.5 mm
01:39 AM 30.0°F-1.1°C 27.2°F-2.7°C 89% Calm Calm 1.7 mph2.7 kmh 28.95 in980.4 mb 0.00 in0.0 mm 0.00 in/hr0.0 mm/hr 0.06 in1.5 mm
01:44 AM 29.8°F-1.2°C 27.0°F-2.8°C 89% 1.1 mph ENE1.8 kmh ENE 1.7 mph2.7 kmh 28.95 in980.4 mb 0.00 in0.0 mm 0.00 in/hr0.0 mm/hr 0.06 in1.5 mm
01:49 AM 29.8°F-1.2°C 27.0°F-2.8°C 89% Calm Calm 1.5 mph2.4 kmh 28.95 in980.4 mb 0.00 in0.0 mm 0.00 in/hr0.0 mm/hr 0.06 in1.5 mm
01:54 AM 29.4°F-1.4°C 26.6°F-3.0°C 89% 0.4 mph ENE0.6 kmh ENE 1.5 mph2.4 kmh 28.95 in980.4 mb 0.00 in0.0 mm 0.00 in/hr0.0 mm/hr 0.06 in1.5 mm
01:59 AM 29.4°F-1.4°C 26.6°F-3.0°C 89% Calm Calm 0.4 mph0.6 kmh 28.95 in980.4 mb 0.00 in0.0 mm 0.00 in/hr0.0 mm/hr 0.06 in1.5 mm
02:04 AM 29.8°F-1.2°C 27.0°F-2.8°C 89% 1.3 mph ENE2.1 kmh ENE 1.3 mph2.1 kmh 28.96 in980.7 mb 0.00 in0.0 mm 0.00 in/hr0.0 mm/hr 0.06 in1.5 mm
02:09 AM 30.0°F-1.1°C 27.2°F-2.7°C 89% 0.8 mph ENE1.3 kmh ENE 1.3 mph2.1 kmh 28.96 in980.7 mb 0.00 in0.0 mm 0.00 in/hr0.0 mm/hr 0.06 in1.5 mm
02:14 AM 29.8°F-1.2°C 27.0°F-2.8°C 89% Calm Calm 1.3 mph2.1 kmh 28.96 in980.7 mb 0.00 in0.0 mm 0.00 in/hr0.0 mm/hr 0.06 in1.5 mm
02:19 AM 29.4°F-1.4°C 26.6°F-3.0°C 89% Calm Calm -- 28.96 in980.7 mb 0.00 in0.0 mm 0.00 in/hr0.0 mm/hr 0.06 in1.5 mm
02:24 AM 29.4°F-1.4°C 26.6°F-3.0°C 89% Calm Calm -- 28.96 in980.7 mb 0.00 in0.0 mm 0.00 in/hr0.0 mm/hr 0.06 in1.5 mm
02:29 AM 29.3°F-1.5°C 26.4°F-3.1°C 89% Calm Calm -- 28.96 in980.7 mb 0.00 in0.0 mm 0.00 in/hr0.0 mm/hr 0.06 in1.5 mm
02:34 AM 29.4°F-1.4°C 26.6°F-3.0°C 89% 1.7 mph ENE2.7 kmh ENE 1.7 mph2.7 kmh 28.96 in980.7 mb 0.00 in0.0 mm 0.00 in/hr0.0 mm/hr 0.06 in1.5 mm
02:39 AM 29.3°F-1.5°C 26.4°F-3.1°C 89% Calm Calm 1.7 mph2.7 kmh 28.96 in980.7 mb 0.00 in0.0 mm 0.00 in/hr0.0 mm/hr 0.06 in1.5 mm
02:44 AM 29.4°F-1.4°C 26.6°F-3.0°C 89% 1.1 mph ENE1.8 kmh ENE 1.1 mph1.8 kmh 28.95 in980.4 mb 0.00 in0.0 mm 0.00 in/hr0.0 mm/hr 0.06 in1.5 mm
02:49 AM 29.8°F-1.2°C 27.0°F-2.8°C 89% 1.7 mph ENE2.7 kmh ENE 2.0 mph3.2 kmh 28.96 in980.7 mb 0.00 in0.0 mm 0.00 in/hr0.0 mm/hr 0.06 in1.5 mm
02:54 AM 29.4°F-1.4°C 26.6°F-3.0°C 89% Calm Calm 2.0 mph3.2 kmh 28.95 in980.4 mb 0.00 in0.0 mm 0.00 in/hr0.0 mm/hr 0.06 in1.5 mm
02:59 AM 29.4°F-1.4°C 26.6°F-3.0°C 89% 0.6 mph ENE1.0 kmh ENE 2.0 mph3.2 kmh 28.95 in980.4 mb 0.00 in0.0 mm 0.00 in/hr0.0 mm/hr 0.06 in1.5 mm
03:04 AM 29.4°F-1.4°C 26.6°F-3.0°C 89% 1.7 mph ENE2.7 kmh ENE 1.7 mph2.7 kmh 28.95 in980.4 mb 0.00 in0.0 mm 0.00 in/hr0.0 mm/hr 0.06 in1.5 mm
03:09 AM 29.4°F-1.4°C 26.6°F-3.0°C 89% 1.5 mph ENE2.4 kmh ENE 1.7 mph2.7 kmh 28.95 in980.4 mb 0.00 in0.0 mm 0.00 in/hr0.0 mm/hr 0.06 in1.5 mm
03:14 AM 30.0°F-1.1°C 27.5°F-2.5°C 90% 1.5 mph ENE2.4 kmh ENE 1.7 mph2.7 kmh 28.95 in980.4 mb 0.00 in0.0 mm 0.00 in/hr0.0 mm/hr 0.06 in1.5 mm
03:19 AM 30.0°F-1.1°C 27.5°F-2.5°C 90% 1.1 mph ENE1.8 kmh ENE 1.7 mph2.7 kmh 28.96 in980.7 mb 0.00 in0.0 mm 0.00 in/hr0.0 mm/hr 0.06 in1.5 mm
03:24 AM 29.8°F-1.2°C 27.3°F-2.6°C 90% Calm Calm 1.5 mph2.4 kmh 28.96 in980.7 mb 0.00 in0.0 mm 0.00 in/hr0.0 mm/hr 0.06 in1.5 mm
03:29 AM 29.1°F-1.6°C 26.3°F-3.2°C 89% 1.3 mph ENE2.1 kmh ENE 1.3 mph2.1 kmh 28.96 in980.7 mb 0.00 in0.0 mm 0.00 in/hr0.0 mm/hr 0.06 in1.5 mm
03:34 AM 29.3°F-1.5°C 26.4°F-3.1°C 89% 0.4 mph ENE0.6 kmh ENE 1.3 mph2.1 kmh 28.96 in980.7 mb 0.00 in0.0 mm 0.00 in/hr0.0 mm/hr 0.06 in1.5 mm
03:39 AM 29.4°F-1.4°C 26.6°F-3.0°C 89% Calm Calm 1.3 mph2.1 kmh 28.96 in980.7 mb 0.00 in0.0 mm 0.00 in/hr0.0 mm/hr 0.06 in1.5 mm
03:44 AM 29.8°F-1.2°C 27.0°F-2.8°C 89% Calm Calm 0.4 mph0.6 kmh 28.96 in980.7 mb 0.00 in0.0 mm 0.00 in/hr0.0 mm/hr 0.06 in1.5 mm
03:49 AM 29.4°F-1.4°C 26.6°F-3.0°C 89% Calm Calm -- 28.97 in981.0 mb 0.00 in0.0 mm 0.00 in/hr0.0 mm/hr 0.06 in1.5 mm
03:54 AM 29.1°F-1.6°C 26.3°F-3.2°C 89% 0.6 mph ENE1.0 kmh ENE 0.6 mph1.0 kmh 28.97 in981.0 mb 0.00 in0.0 mm 0.00 in/hr0.0 mm/hr 0.06 in1.5 mm
03:59 AM 29.3°F-1.5°C 26.4°F-3.1°C 89% 1.5 mph ENE2.4 kmh ENE 1.5 mph2.4 kmh 28.97 in981.0 mb 0.00 in0.0 mm 0.00 in/hr0.0 mm/hr 0.06 in1.5 mm
04:04 AM 29.8°F-1.2°C 27.3°F-2.6°C 90% Calm Calm 1.5 mph2.4 kmh 28.97 in981.0 mb 0.00 in0.0 mm 0.00 in/hr0.0 mm/hr 0.06 in1.5 mm
04:09 AM 29.8°F-1.2°C 27.3°F-2.6°C 90% Calm Calm 1.5 mph2.4 kmh 28.96 in980.7 mb 0.00 in0.0 mm 0.00 in/hr0.0 mm/hr 0.06 in1.5 mm
04:14 AM 30.0°F-1.1°C 27.5°F-2.5°C 90% 1.1 mph ENE1.8 kmh ENE 2.2 mph3.5 kmh 28.96 in980.7 mb 0.00 in0.0 mm 0.00 in/hr0.0 mm/hr 0.06 in1.5 mm
04:19 AM 29.8°F-1.2°C 27.3°F-2.6°C 90% 0.4 mph ENE0.6 kmh ENE 2.2 mph3.5 kmh 28.96 in980.7 mb 0.00 in0.0 mm 0.00 in/hr0.0 mm/hr 0.06 in1.5 mm
04:24 AM 29.8°F-1.2°C 27.3°F-2.6°C 90% 1.3 mph ENE2.1 kmh ENE 1.3 mph2.1 kmh 28.96 in980.7 mb 0.00 in0.0 mm 0.00 in/hr0.0 mm/hr 0.06 in1.5 mm
04:29 AM 30.3°F-0.9°C 27.8°F-2.3°C 90% 2.4 mph ENE3.9 kmh ENE 3.1 mph5.0 kmh 28.97 in981.0 mb 0.00 in0.0 mm 0.00 in/hr0.0 mm/hr 0.06 in1.5 mm
04:34 AM 30.9°F-0.6°C 28.4°F-2.0°C 90% 3.7 mph ENE6.0 kmh ENE 4.0 mph6.4 kmh 28.97 in981.0 mb 0.00 in0.0 mm 0.00 in/hr0.0 mm/hr 0.06 in1.5 mm
04:39 AM 30.7°F-0.7°C 28.2°F-2.1°C 90% 3.1 mph ENE5.0 kmh ENE 4.0 mph6.4 kmh 28.97 in981.0 mb 0.00 in0.0 mm 0.00 in/hr0.0 mm/hr 0.06 in1.5 mm
04:44 AM 30.7°F-0.7°C 28.2°F-2.1°C 90% 1.2 mph ENE1.9 kmh ENE 4.0 mph6.4 kmh 28.98 in981.4 mb 0.00 in0.0 mm 0.00 in/hr0.0 mm/hr 0.06 in1.5 mm
04:49 AM 30.7°F-0.7°C 28.2°F-2.1°C 90% Calm Calm 3.3 mph5.3 kmh 28.98 in981.4 mb 0.00 in0.0 mm 0.00 in/hr0.0 mm/hr 0.06 in1.5 mm
04:54 AM 30.3°F-0.9°C 27.8°F-2.3°C 90% 2.4 mph ENE3.9 kmh ENE 2.6 mph4.2 kmh 28.98 in981.4 mb 0.00 in0.0 mm 0.00 in/hr0.0 mm/hr 0.06 in1.5 mm
04:59 AM 30.2°F-1.0°C 27.6°F-2.4°C 90% 1.6 mph ENE2.6 kmh ENE 2.6 mph4.2 kmh 28.98 in981.4 mb 0.00 in0.0 mm 0.00 in/hr0.0 mm/hr 0.06 in1.5 mm
05:04 AM 30.0°F-1.1°C 27.5°F-2.5°C 90% 2.0 mph ENE3.2 kmh ENE 2.6 mph4.2 kmh 28.98 in981.4 mb 0.00 in0.0 mm 0.00 in/hr0.0 mm/hr 0.06 in1.5 mm
05:09 AM 30.0°F-1.1°C 27.5°F-2.5°C 90% 4.2 mph ENE6.8 kmh ENE 4.2 mph6.8 kmh 28.99 in981.7 mb 0.00 in0.0 mm 0.00 in/hr0.0 mm/hr 0.06 in1.5 mm
05:14 AM 30.0°F-1.1°C 27.5°F-2.5°C 90% 3.1 mph ENE5.0 kmh ENE 4.2 mph6.8 kmh 28.99 in981.7 mb 0.00 in0.0 mm 0.00 in/hr0.0 mm/hr 0.06 in1.5 mm
05:19 AM 29.8°F-1.2°C 27.3°F-2.6°C 90% 2.2 mph ENE3.5 kmh ENE 4.2 mph6.8 kmh 29.00 in982.1 mb 0.00 in0.0 mm 0.00 in/hr0.0 mm/hr 0.06 in1.5 mm
05:24 AM 29.8°F-1.2°C 27.3°F-2.6°C 90% 4.7 mph ENE7.6 kmh ENE 4.9 mph7.9 kmh 28.98 in981.4 mb 0.00 in0.0 mm 0.00 in/hr0.0 mm/hr 0.06 in1.5 mm
05:29 AM 29.8°F-1.2°C 27.3°F-2.6°C 90% 2.2 mph ENE3.5 kmh ENE 4.9 mph7.9 kmh 28.99 in981.7 mb 0.00 in0.0 mm 0.00 in/hr0.0 mm/hr 0.06 in1.5 mm
05:34 AM 29.4°F-1.4°C 26.9°F-2.8°C 90% 2.3 mph ENE3.7 kmh ENE 4.9 mph7.9 kmh 28.99 in981.7 mb 0.00 in0.0 mm 0.00 in/hr0.0 mm/hr 0.06 in1.5 mm
05:39 AM 29.4°F-1.4°C 26.9°F-2.8°C 90% 0.4 mph ENE0.6 kmh ENE 3.5 mph5.6 kmh 28.98 in981.4 mb 0.00 in0.0 mm 0.00 in/hr0.0 mm/hr 0.06 in1.5 mm
05:44 AM 29.4°F-1.4°C 26.9°F-2.8°C 90% 3.1 mph ENE5.0 kmh ENE 3.3 mph5.3 kmh 28.99 in981.7 mb 0.00 in0.0 mm 0.00 in/hr0.0 mm/hr 0.06 in1.5 mm
05:49 AM 29.8°F-1.2°C 27.0°F-2.8°C 89% 2.7 mph ENE4.3 kmh ENE 5.5 mph8.9 kmh 28.99 in981.7 mb 0.00 in0.0 mm 0.00 in/hr0.0 mm/hr 0.06 in1.5 mm
05:54 AM 29.8°F-1.2°C 27.0°F-2.8°C 89% 3.5 mph ENE5.6 kmh ENE 5.5 mph8.9 kmh 28.99 in981.7 mb 0.00 in0.0 mm 0.00 in/hr0.0 mm/hr 0.06 in1.5 mm
05:59 AM 30.0°F-1.1°C 27.2°F-2.7°C 89% 3.2 mph ENE5.1 kmh ENE 5.5 mph8.9 kmh 29.00 in982.1 mb 0.00 in0.0 mm 0.00 in/hr0.0 mm/hr 0.06 in1.5 mm
06:04 AM 30.3°F-0.9°C 27.5°F-2.5°C 88% 2.0 mph ENE3.2 kmh ENE 4.2 mph6.8 kmh 29.00 in982.1 mb 0.00 in0.0 mm 0.00 in/hr0.0 mm/hr 0.06 in1.5 mm
06:09 AM 30.0°F-1.1°C 26.9°F-2.8°C 88% 1.2 mph ENE1.9 kmh ENE 4.2 mph6.8 kmh 29.00 in982.1 mb 0.00 in0.0 mm 0.00 in/hr0.0 mm/hr 0.06 in1.5 mm
06:14 AM 30.7°F-0.7°C 27.6°F-2.4°C 88% 1.3 mph ENE2.1 kmh ENE 2.4 mph3.9 kmh 29.01 in982.4 mb 0.00 in0.0 mm 0.00 in/hr0.0 mm/hr 0.06 in1.5 mm
06:19 AM 30.5°F-0.8°C 27.4°F-2.6°C 88% 0.8 mph ENE1.3 kmh ENE 5.8 mph9.3 kmh 29.01 in982.4 mb 0.00 in0.0 mm 0.00 in/hr0.0 mm/hr 0.06 in1.5 mm
06:24 AM 30.3°F-0.9°C 27.2°F-2.7°C 88% 3.1 mph ENE5.0 kmh ENE 5.8 mph9.3 kmh 29.01 in982.4 mb 0.00 in0.0 mm 0.00 in/hr0.0 mm/hr 0.06 in1.5 mm
06:29 AM 30.0°F-1.1°C 26.9°F-2.8°C 88% 4.2 mph ENE6.8 kmh ENE 4.2 mph6.8 kmh 29.01 in982.4 mb 0.00 in0.0 mm 0.00 in/hr0.0 mm/hr 0.06 in1.5 mm
06:34 AM 30.7°F-0.7°C 27.6°F-2.4°C 88% 2.6 mph ENE4.2 kmh ENE 6.2 mph10.0 kmh 29.02 in982.7 mb 0.00 in0.0 mm 0.00 in/hr0.0 mm/hr 0.06 in1.5 mm
06:39 AM 31.4°F-0.3°C 28.0°F-2.2°C 87% 3.1 mph ENE5.0 kmh ENE 6.2 mph10.0 kmh 29.01 in982.4 mb 0.02 in0.5 mm 0.24 in/hr6.1 mm/hr 0.02 in0.5 mm
06:44 AM 30.7°F-0.7°C 27.3°F-2.6°C 87% 4.7 mph ENE7.6 kmh ENE 5.5 mph8.9 kmh 29.01 in982.4 mb 0.02 in0.5 mm 0.00 in/hr0.0 mm/hr 0.02 in0.5 mm
06:49 AM 30.7°F-0.7°C 27.3°F-2.6°C 87% 4.7 mph ENE7.6 kmh ENE 6.2 mph10.0 kmh 29.02 in982.7 mb 0.02 in0.5 mm 0.00 in/hr0.0 mm/hr 0.02 in0.5 mm
06:54 AM 30.7°F-0.7°C 27.3°F-2.6°C 87% 1.0 mph ENE1.6 kmh ENE 6.2 mph10.0 kmh 29.02 in982.7 mb 0.02 in0.5 mm 0.00 in/hr0.0 mm/hr 0.02 in0.5 mm
06:59 AM 30.5°F-0.8°C 27.1°F-2.7°C 88% 2.1 mph ENE3.4 kmh ENE 4.4 mph7.1 kmh 29.02 in982.7 mb 0.02 in0.5 mm 0.00 in/hr0.0 mm/hr 0.02 in0.5 mm
07:04 AM 30.5°F-0.8°C 27.1°F-2.7°C 87% 1.2 mph ENE1.9 kmh ENE 4.4 mph7.1 kmh 29.03 in983.1 mb 0.02 in0.5 mm 0.00 in/hr0.0 mm/hr 0.02 in0.5 mm
07:09 AM 30.3°F-0.9°C 26.9°F-2.8°C 87% 2.2 mph ENE3.5 kmh ENE 3.5 mph5.6 kmh 29.03 in983.1 mb 0.02 in0.5 mm 0.00 in/hr0.0 mm/hr 0.02 in0.5 mm
07:14 AM 29.8°F-1.2°C 26.4°F-3.1°C 87% Calm Calm 2.2 mph3.5 kmh 29.02 in982.7 mb 0.02 in0.5 mm 0.00 in/hr0.0 mm/hr 0.02 in0.5 mm
07:19 AM 30.0°F-1.1°C 26.6°F-3.0°C 87% 0.7 mph ENE1.1 kmh ENE 1.7 mph2.7 kmh 29.02 in982.7 mb 0.02 in0.5 mm 0.00 in/hr0.0 mm/hr 0.02 in0.5 mm
07:24 AM 30.7°F-0.7°C 27.3°F-2.6°C 87% 3.3 mph ENE5.3 kmh ENE 3.3 mph5.3 kmh 29.02 in982.7 mb 0.02 in0.5 mm 0.00 in/hr0.0 mm/hr 0.02 in0.5 mm
07:30 AM 36.5°F2.5°C 32.9°F0.5°C 87% 7.0 mph ENE11.3 kmh ENE 15.2 mph24.5 kmh 29.02 in982.7 mb 0.02 in0.5 mm 0.00 in/hr0.0 mm/hr 0.02 in0.5 mm
07:35 AM 36.1°F2.3°C 23.2°F-4.9°C 59% 1.2 mph ENE1.9 kmh ENE 15.2 mph24.5 kmh 29.02 in982.7 mb 0.02 in0.5 mm 0.00 in/hr0.0 mm/hr 0.02 in0.5 mm
07:40 AM 36.5°F2.5°C 23.1°F-4.9°C 60% 3.4 mph ENE5.5 kmh ENE 3.5 mph5.6 kmh 29.03 in983.1 mb 0.00 in0.0 mm 0.00 in/hr0.0 mm/hr 0.02 in0.5 mm
07:45 AM 37.4°F3.0°C 25.5°F-3.6°C 62% 3.1 mph ENE5.0 kmh ENE 3.5 mph5.6 kmh 29.03 in983.1 mb 0.00 in0.0 mm 0.00 in/hr0.0 mm/hr 0.02 in0.5 mm
07:50 AM 36.5°F2.5°C 26.2°F-3.2°C 66% 3.2 mph ENE5.1 kmh ENE 5.3 mph8.5 kmh 29.03 in983.1 mb 0.00 in0.0 mm 0.00 in/hr0.0 mm/hr 0.02 in0.5 mm
07:55 AM 36.3°F2.4°C 21.2°F-6.0°C 54% 3.0 mph ENE4.8 kmh ENE 5.3 mph8.5 kmh 29.03 in983.1 mb 0.00 in0.0 mm 0.00 in/hr0.0 mm/hr 0.02 in0.5 mm
08:00 AM 38.1°F3.4°C 21.1°F-6.1°C 50% 4.1 mph ENE6.6 kmh ENE 10.2 mph16.4 kmh 29.02 in982.7 mb 0.00 in0.0 mm 0.00 in/hr0.0 mm/hr 0.02 in0.5 mm
08:05 AM 38.8°F3.8°C 21.7°F-5.7°C 50% 4.6 mph ENE7.4 kmh ENE 10.2 mph16.4 kmh 29.03 in983.1 mb 0.00 in0.0 mm 0.00 in/hr0.0 mm/hr 0.02 in0.5 mm
08:10 AM 39.7°F4.3°C 20.5°F-6.4°C 46% 9.3 mph ENE15.0 kmh ENE 15.2 mph24.5 kmh 29.03 in983.1 mb 0.00 in0.0 mm 0.00 in/hr0.0 mm/hr 0.02 in0.5 mm
08:15 AM 39.7°F4.3°C 19.9°F-6.7°C 45% 5.7 mph ENE9.2 kmh ENE 15.2 mph24.5 kmh 29.03 in983.1 mb 0.00 in0.0 mm 0.00 in/hr0.0 mm/hr 0.02 in0.5 mm
08:20 AM 39.9°F4.4°C 20.1°F-6.6°C 47% 3.5 mph ENE5.6 kmh ENE 8.7 mph14.0 kmh 29.04 in983.4 mb 0.00 in0.0 mm 0.00 in/hr0.0 mm/hr 0.02 in0.5 mm
08:25 AM 39.5°F4.2°C 19.8°F-6.8°C 45% 7.0 mph ENE11.3 kmh ENE 14.0 mph22.5 kmh 29.03 in983.1 mb 0.00 in0.0 mm 0.00 in/hr0.0 mm/hr 0.02 in0.5 mm
08:30 AM 39.3°F4.1°C 20.6°F-6.3°C 47% 3.5 mph ENE5.6 kmh ENE 14.0 mph22.5 kmh 29.04 in983.4 mb 0.00 in0.0 mm 0.00 in/hr0.0 mm/hr 0.02 in0.5 mm
08:35 AM 39.7°F4.3°C 19.9°F-6.7°C 45% 4.4 mph ENE7.1 kmh ENE 7.3 mph11.7 kmh 29.03 in983.1 mb 0.00 in0.0 mm 0.00 in/hr0.0 mm/hr 0.02 in0.5 mm
08:40 AM 39.7°F4.3°C 19.9°F-6.7°C 47% 2.2 mph NW3.5 kmh NW 6.0 mph9.7 kmh 29.04 in983.4 mb 0.00 in0.0 mm 0.00 in/hr0.0 mm/hr 0.02 in0.5 mm
08:45 AM 39.9°F4.4°C 17.5°F-8.1°C 40% 7.3 mph SW11.7 kmh SW 8.0 mph12.9 kmh 29.05 in983.7 mb 0.00 in0.0 mm 0.00 in/hr0.0 mm/hr 0.02 in0.5 mm
08:50 AM 40.1°F4.5°C 20.3°F-6.5°C 45% 3.2 mph SW5.1 kmh SW 8.0 mph12.9 kmh 29.04 in983.4 mb 0.00 in0.0 mm 0.00 in/hr0.0 mm/hr 0.02 in0.5 mm
08:55 AM 40.1°F4.5°C 21.8°F-5.7°C 48% 1.7 mph W2.7 kmh W 8.0 mph12.9 kmh 29.05 in983.7 mb 0.00 in0.0 mm 0.00 in/hr0.0 mm/hr 0.02 in0.5 mm
09:00 AM 39.7°F4.3°C 21.0°F-6.1°C 47% 2.6 mph NW4.2 kmh NW 6.2 mph10.0 kmh 29.05 in983.7 mb 0.00 in0.0 mm 0.00 in/hr0.0 mm/hr 0.02 in0.5 mm
09:05 AM 39.7°F4.3°C 23.0°F-5.0°C 51% 5.2 mph NW8.4 kmh NW 6.2 mph10.0 kmh 29.05 in983.7 mb 0.00 in0.0 mm 0.00 in/hr0.0 mm/hr 0.02 in0.5 mm
09:10 AM 40.6°F4.8°C 19.7°F-6.8°C 43% 3.0 mph SW4.8 kmh SW 5.3 mph8.5 kmh 29.06 in984.1 mb 0.00 in0.0 mm 0.00 in/hr0.0 mm/hr 0.02 in0.5 mm
09:15 AM 40.2°F4.6°C 18.8°F-7.3°C 42% 6.9 mph SSW11.1 kmh SSW 10.9 mph17.5 kmh 29.06 in984.1 mb 0.00 in0.0 mm 0.00 in/hr0.0 mm/hr 0.02 in0.5 mm
09:20 AM 40.6°F4.8°C 19.2°F-7.1°C 42% 6.4 mph WSW10.3 kmh WSW 12.9 mph20.8 kmh 29.07 in984.4 mb 0.00 in0.0 mm 0.00 in/hr0.0 mm/hr 0.02 in0.5 mm
09:25 AM 40.6°F4.8°C 22.8°F-5.1°C 49% 1.6 mph NE2.6 kmh NE 12.9 mph20.8 kmh 29.07 in984.4 mb 0.00 in0.0 mm 0.00 in/hr0.0 mm/hr 0.02 in0.5 mm
09:30 AM 39.2°F4.0°C 23.3°F-4.8°C 53% 5.7 mph E9.2 kmh E 7.8 mph12.6 kmh 29.07 in984.4 mb 0.00 in0.0 mm 0.00 in/hr0.0 mm/hr 0.02 in0.5 mm
09:35 AM 38.6°F3.7°C 23.7°F-4.6°C 55% 2.3 mph E3.7 kmh E 7.8 mph12.6 kmh 29.07 in984.4 mb 0.00 in0.0 mm 0.00 in/hr0.0 mm/hr 0.02 in0.5 mm
09:40 AM 38.4°F3.6°C 23.6°F-4.7°C 55% 1.4 mph S2.3 kmh S 3.5 mph5.6 kmh 29.07 in984.4 mb 0.00 in0.0 mm 0.00 in/hr0.0 mm/hr 0.02 in0.5 mm
09:45 AM 38.4°F3.6°C 24.4°F-4.2°C 58% 2.7 mph NE4.3 kmh NE 6.4 mph10.3 kmh 29.08 in984.8 mb 0.00 in0.0 mm 0.00 in/hr0.0 mm/hr 0.02 in0.5 mm
09:50 AM 38.8°F3.8°C 23.9°F-4.5°C 55% 3.1 mph ESE5.0 kmh ESE 6.9 mph11.1 kmh 29.07 in984.4 mb 0.00 in0.0 mm 0.00 in/hr0.0 mm/hr 0.02 in0.5 mm
09:56 AM 38.4°F3.6°C 24.4°F-4.2°C 57% 2.7 mph SSE4.3 kmh SSE 6.9 mph11.1 kmh 29.08 in984.8 mb 0.00 in0.0 mm 0.00 in/hr0.0 mm/hr 0.02 in0.5 mm
10:00 AM 40.8°F4.9°C 20.4°F-6.4°C 43% 7.5 mph SSE12.1 kmh SSE 11.6 mph18.7 kmh 29.08 in984.8 mb 0.00 in0.0 mm 0.00 in/hr0.0 mm/hr 0.02 in0.5 mm
10:05 AM 40.2°F4.6°C 24.4°F-4.2°C 53% 5.1 mph E8.2 kmh E 11.6 mph18.7 kmh 29.08 in984.8 mb 0.00 in0.0 mm 0.00 in/hr0.0 mm/hr 0.02 in0.5 mm
10:11 AM 39.9°F4.4°C 24.0°F-4.4°C 54% 3.0 mph SE4.8 kmh SE 7.8 mph12.6 kmh 29.08 in984.8 mb 0.00 in0.0 mm 0.00 in/hr0.0 mm/hr 0.02 in0.5 mm
10:15 AM 40.6°F4.8°C 24.2°F-4.3°C 52% 2.6 mph SE4.2 kmh SE 9.8 mph15.8 kmh 29.08 in984.8 mb 0.00 in0.0 mm 0.00 in/hr0.0 mm/hr 0.02 in0.5 mm
10:21 AM 40.6°F4.8°C 24.2°F-4.3°C 55% 2.2 mph NW3.5 kmh NW 9.8 mph15.8 kmh 29.09 in985.1 mb 0.00 in0.0 mm 0.00 in/hr0.0 mm/hr 0.02 in0.5 mm
10:26 AM 40.2°F4.6°C 26.6°F-3.0°C 58% 4.8 mph E7.7 kmh E 7.3 mph11.7 kmh 29.09 in985.1 mb 0.00 in0.0 mm 0.00 in/hr0.0 mm/hr 0.02 in0.5 mm
10:31 AM 40.6°F4.8°C 25.6°F-3.6°C 52% 2.2 mph ESE3.5 kmh ESE 7.3 mph11.7 kmh 29.09 in985.1 mb 0.00 in0.0 mm 0.00 in/hr0.0 mm/hr 0.02 in0.5 mm
10:36 AM 40.8°F4.9°C 23.0°F-5.0°C 49% 6.6 mph SE10.6 kmh SE 9.3 mph15.0 kmh 29.09 in985.1 mb 0.00 in0.0 mm 0.00 in/hr0.0 mm/hr 0.02 in0.5 mm
10:41 AM 41.5°F5.3°C 26.0°F-3.3°C 54% 4.6 mph ENE7.4 kmh ENE 9.3 mph15.0 kmh 29.08 in984.8 mb 0.00 in0.0 mm 0.00 in/hr0.0 mm/hr 0.02 in0.5 mm
10:46 AM 41.7°F5.4°C 26.6°F-3.0°C 55% 4.0 mph N6.4 kmh N 6.2 mph10.0 kmh 29.09 in985.1 mb 0.00 in0.0 mm 0.00 in/hr0.0 mm/hr 0.02 in0.5 mm
10:51 AM 41.1°F5.1°C 25.6°F-3.6°C 54% 2.2 mph N3.5 kmh N 6.7 mph10.8 kmh 29.09 in985.1 mb 0.00 in0.0 mm 0.00 in/hr0.0 mm/hr 0.02 in0.5 mm
10:56 AM 40.8°F4.9°C 26.2°F-3.2°C 56% 2.4 mph S3.9 kmh S 6.7 mph10.8 kmh 29.08 in984.8 mb 0.00 in0.0 mm 0.00 in/hr0.0 mm/hr 0.02 in0.5 mm
11:01 AM 41.5°F5.3°C 25.1°F-3.8°C 52% 4.2 mph ESE6.8 kmh ESE 4.6 mph7.4 kmh 29.08 in984.8 mb 0.00 in0.0 mm 0.00 in/hr0.0 mm/hr 0.02 in0.5 mm
11:06 AM 40.8°F4.9°C 22.5°F-5.3°C 48% 4.9 mph SE7.9 kmh SE 12.0 mph19.3 kmh 29.08 in984.8 mb 0.00 in0.0 mm 0.00 in/hr0.0 mm/hr 0.02 in0.5 mm
11:11 AM 42.0°F5.6°C 23.7°F-4.6°C 48% 4.0 mph SE6.4 kmh SE 12.0 mph19.3 kmh 29.08 in984.8 mb 0.00 in0.0 mm 0.00 in/hr0.0 mm/hr 0.02 in0.5 mm
11:16 AM 41.9°F5.5°C 24.6°F-4.1°C 49% 2.9 mph SE4.7 kmh SE 6.2 mph10.0 kmh 29.09 in985.1 mb 0.00 in0.0 mm 0.00 in/hr0.0 mm/hr 0.02 in0.5 mm
11:21 AM 43.1°F6.2°C 25.3°F-3.7°C 49% 2.9 mph ENE4.7 kmh ENE 6.2 mph10.0 kmh 29.08 in984.8 mb 0.00 in0.0 mm 0.00 in/hr0.0 mm/hr 0.02 in0.5 mm
11:26 AM 41.7°F5.4°C 22.8°F-5.1°C 47% 7.6 mph SE12.2 kmh SE 10.2 mph16.4 kmh 29.08 in984.8 mb 0.00 in0.0 mm 0.00 in/hr0.0 mm/hr 0.02 in0.5 mm
11:31 AM 44.4°F6.9°C 21.5°F-5.8°C 40% 6.5 mph NE10.5 kmh NE 22.8 mph36.7 kmh 29.09 in985.1 mb 0.00 in0.0 mm 0.00 in/hr0.0 mm/hr 0.02 in0.5 mm
11:36 AM 43.7°F6.5°C 23.0°F-5.0°C 44% 5.5 mph SW8.9 kmh SW 22.8 mph36.7 kmh 29.08 in984.8 mb 0.00 in0.0 mm 0.00 in/hr0.0 mm/hr 0.02 in0.5 mm
11:41 AM 44.4°F6.9°C 21.5°F-5.8°C 40% 7.6 mph S12.2 kmh S 17.0 mph27.4 kmh 29.09 in985.1 mb 0.00 in0.0 mm 0.00 in/hr0.0 mm/hr 0.02 in0.5 mm
11:46 AM 44.2°F6.8°C 23.0°F-5.0°C 43% 3.1 mph NNE5.0 kmh NNE 17.0 mph27.4 kmh 29.10 in985.4 mb 0.00 in0.0 mm 0.00 in/hr0.0 mm/hr 0.02 in0.5 mm
11:51 AM 46.0°F7.8°C 19.0°F-7.2°C 34% 6.1 mph NW9.8 kmh NW 17.0 mph27.4 kmh 29.11 in985.8 mb 0.00 in0.0 mm 0.00 in/hr0.0 mm/hr 0.02 in0.5 mm
11:56 AM 46.4°F8.0°C 20.6°F-6.3°C 36% 4.2 mph N6.8 kmh N 12.7 mph20.4 kmh 29.10 in985.4 mb 0.00 in0.0 mm 0.00 in/hr0.0 mm/hr 0.02 in0.5 mm
12:01 PM 46.4°F8.0°C 20.6°F-6.3°C 36% 5.0 mph E8.0 kmh E 8.7 mph14.0 kmh 29.11 in985.8 mb 0.00 in0.0 mm 0.00 in/hr0.0 mm/hr 0.02 in0.5 mm
12:06 PM 45.8°F7.7°C 21.5°F-5.8°C 38% 2.4 mph SSW3.9 kmh SSW 7.8 mph12.6 kmh 29.10 in985.4 mb 0.00 in0.0 mm 0.00 in/hr0.0 mm/hr 0.02 in0.5 mm
12:11 PM 45.8°F7.7°C 22.2°F-5.4°C 39% 2.9 mph SE4.7 kmh SE 3.8 mph6.1 kmh 29.09 in985.1 mb 0.00 in0.0 mm 0.00 in/hr0.0 mm/hr 0.02 in0.5 mm
12:16 PM 45.5°F7.5°C 24.7°F-4.1°C 41% 2.7 mph SSE4.3 kmh SSE 5.3 mph8.5 kmh 29.09 in985.1 mb 0.00 in0.0 mm 0.00 in/hr0.0 mm/hr 0.02 in0.5 mm
12:21 PM 45.6°F7.6°C 23.7°F-4.6°C 42% 4.7 mph E7.6 kmh E 5.8 mph9.3 kmh 29.10 in985.4 mb 0.00 in0.0 mm 0.00 in/hr0.0 mm/hr 0.02 in0.5 mm
12:26 PM 46.0°F7.8°C 24.6°F-4.1°C 43% 2.5 mph WSW4.0 kmh WSW 5.8 mph9.3 kmh 29.11 in985.8 mb 0.00 in0.0 mm 0.00 in/hr0.0 mm/hr 0.02 in0.5 mm
12:31 PM 46.7°F8.2°C 20.3°F-6.5°C 35% 6.6 mph NNW10.6 kmh NNW 11.6 mph18.7 kmh 29.11 in985.8 mb 0.00 in0.0 mm 0.00 in/hr0.0 mm/hr 0.02 in0.5 mm
12:36 PM 47.4°F8.6°C 19.0°F-7.2°C 32% 4.2 mph 6.8 kmh 11.6 mph18.7 kmh 29.11 in985.8 mb 0.00 in0.0 mm 0.00 in/hr0.0 mm/hr 0.02 in0.5 mm
12:41 PM 47.4°F8.6°C 21.6°F-5.8°C 35% 3.3 mph WNW5.3 kmh WNW 5.1 mph8.2 kmh 29.11 in985.8 mb 0.00 in0.0 mm 0.00 in/hr0.0 mm/hr 0.02 in0.5 mm
12:46 PM 46.9°F8.3°C 23.8°F-4.6°C 40% 4.7 mph NE7.6 kmh NE 5.3 mph8.5 kmh 29.12 in986.1 mb 0.00 in0.0 mm 0.00 in/hr0.0 mm/hr 0.02 in0.5 mm
12:51 PM 46.5°F8.1°C 21.5°F-5.8°C 37% 7.4 mph ESE11.9 kmh ESE 10.5 mph16.9 kmh 29.13 in986.5 mb 0.00 in0.0 mm 0.00 in/hr0.0 mm/hr 0.02 in0.5 mm
12:56 PM 46.5°F8.1°C 21.5°F-5.8°C 37% 4.2 mph NE6.8 kmh NE 10.5 mph16.9 kmh 29.12 in986.1 mb 0.00 in0.0 mm 0.00 in/hr0.0 mm/hr 0.02 in0.5 mm
01:01 PM 46.7°F8.2°C 21.0°F-6.1°C 36% 4.2 mph 6.8 kmh 8.5 mph13.7 kmh 29.13 in986.5 mb 0.00 in0.0 mm 0.00 in/hr0.0 mm/hr 0.02 in0.5 mm
01:06 PM 46.9°F8.3°C 21.8°F-5.7°C 37% 4.9 mph ESE7.9 kmh ESE 11.6 mph18.7 kmh 29.12 in986.1 mb 0.00 in0.0 mm 0.00 in/hr0.0 mm/hr 0.02 in0.5 mm
01:11 PM 47.4°F8.6°C 22.3°F-5.4°C 37% 2.6 mph NW4.2 kmh NW 11.8 mph19.0 kmh 29.14 in986.8 mb 0.00 in0.0 mm 0.00 in/hr0.0 mm/hr 0.02 in0.5 mm
01:16 PM 47.8°F8.8°C 23.9°F-4.5°C 39% 2.2 mph NW3.5 kmh NW 11.8 mph19.0 kmh 29.13 in986.5 mb 0.00 in0.0 mm 0.00 in/hr0.0 mm/hr 0.02 in0.5 mm
01:21 PM 47.4°F8.6°C 23.0°F-5.0°C 39% 1.3 mph E2.1 kmh E 4.2 mph6.8 kmh 29.14 in986.8 mb 0.00 in0.0 mm 0.00 in/hr0.0 mm/hr 0.02 in0.5 mm
01:26 PM 47.4°F8.6°C 23.0°F-5.0°C 36% 2.8 mph NW4.5 kmh NW 4.2 mph6.8 kmh 29.13 in986.5 mb 0.00 in0.0 mm 0.00 in/hr0.0 mm/hr 0.02 in0.5 mm
01:31 PM 47.3°F8.5°C 23.5°F-4.7°C 39% 0.5 mph NNW0.8 kmh NNW 3.8 mph6.1 kmh 29.14 in986.8 mb 0.00 in0.0 mm 0.00 in/hr0.0 mm/hr 0.02 in0.5 mm
01:36 PM 47.1°F8.4°C 25.6°F-3.6°C 43% 3.6 mph E5.8 kmh E 5.3 mph8.5 kmh 29.14 in986.8 mb 0.00 in0.0 mm 0.00 in/hr0.0 mm/hr 0.02 in0.5 mm
01:41 PM 47.4°F8.6°C 22.3°F-5.4°C 37% 1.9 mph NE3.1 kmh NE 5.3 mph8.5 kmh 29.14 in986.8 mb 0.00 in0.0 mm 0.00 in/hr0.0 mm/hr 0.02 in0.5 mm
01:46 PM 47.3°F8.5°C 21.5°F-5.8°C 36% 1.7 mph N2.7 kmh N 2.2 mph3.5 kmh 29.14 in986.8 mb 0.00 in0.0 mm 0.00 in/hr0.0 mm/hr 0.02 in0.5 mm
01:51 PM 47.1°F8.4°C 22.0°F-5.6°C 37% 0.4 mph NW0.6 kmh NW 2.2 mph3.5 kmh 29.15 in987.1 mb 0.00 in0.0 mm 0.00 in/hr0.0 mm/hr 0.02 in0.5 mm
01:56 PM 46.9°F8.3°C 20.5°F-6.4°C 39% 0.8 mph WSW1.3 kmh WSW 8.7 mph14.0 kmh 29.15 in987.1 mb 0.00 in0.0 mm 0.00 in/hr0.0 mm/hr 0.02 in0.5 mm
02:01 PM 46.5°F8.1°C 22.1°F-5.5°C 38% 4.2 mph NNE6.8 kmh NNE 8.7 mph14.0 kmh 29.15 in987.1 mb 0.00 in0.0 mm 0.00 in/hr0.0 mm/hr 0.02 in0.5 mm
02:06 PM 46.7°F8.2°C 21.0°F-6.1°C 36% 3.3 mph E5.3 kmh E 6.2 mph10.0 kmh 29.15 in987.1 mb 0.00 in0.0 mm 0.00 in/hr0.0 mm/hr 0.02 in0.5 mm
02:11 PM 46.9°F8.3°C 21.8°F-5.7°C 37% 3.8 mph N6.1 kmh N 6.4 mph10.3 kmh 29.16 in987.5 mb 0.00 in0.0 mm 0.00 in/hr0.0 mm/hr 0.02 in0.5 mm
02:16 PM 46.7°F8.2°C 22.3°F-5.4°C 36% 3.0 mph NNE4.8 kmh NNE 6.4 mph10.3 kmh 29.16 in987.5 mb 0.00 in0.0 mm 0.00 in/hr0.0 mm/hr 0.02 in0.5 mm
02:21 PM 46.5°F8.1°C 20.8°F-6.2°C 36% 1.6 mph NW2.6 kmh NW 3.5 mph5.6 kmh 29.16 in987.5 mb 0.00 in0.0 mm 0.00 in/hr0.0 mm/hr 0.02 in0.5 mm
02:27 PM 46.5°F8.1°C 20.8°F-6.2°C 36% 1.1 mph SW1.8 kmh SW 3.3 mph5.3 kmh 29.17 in987.8 mb 0.00 in0.0 mm 0.00 in/hr0.0 mm/hr 0.02 in0.5 mm
02:32 PM 46.0°F7.8°C 23.0°F-5.0°C 40% 3.1 mph NW5.0 kmh NW 3.3 mph5.3 kmh 29.17 in987.8 mb 0.00 in0.0 mm 0.00 in/hr0.0 mm/hr 0.02 in0.5 mm
02:37 PM 45.6°F7.6°C 25.9°F-3.4°C 46% 1.3 mph NW2.1 kmh NW 3.3 mph5.3 kmh 29.18 in988.1 mb 0.00 in0.0 mm 0.00 in/hr0.0 mm/hr 0.02 in0.5 mm
02:41 PM 46.0°F7.8°C 21.0°F-6.1°C 37% 5.2 mph N8.4 kmh N 9.3 mph15.0 kmh 29.18 in988.1 mb 0.00 in0.0 mm 0.00 in/hr0.0 mm/hr 0.02 in0.5 mm
02:47 PM 46.2°F7.9°C 21.8°F-5.7°C 39% 1.1 mph W1.8 kmh W 9.3 mph15.0 kmh 29.18 in988.1 mb 0.00 in0.0 mm 0.00 in/hr0.0 mm/hr 0.02 in0.5 mm
02:52 PM 46.0°F7.8°C 23.5°F-4.7°C 41% 1.1 mph NNW1.8 kmh NNW 4.2 mph6.8 kmh 29.17 in987.8 mb 0.00 in0.0 mm 0.00 in/hr0.0 mm/hr 0.02 in0.5 mm
02:57 PM 45.6°F7.6°C 25.9°F-3.4°C 40% 1.2 mph ESE1.9 kmh ESE 1.3 mph2.1 kmh 29.18 in988.1 mb 0.00 in0.0 mm 0.00 in/hr0.0 mm/hr 0.02 in0.5 mm
03:02 PM 46.0°F7.8°C 20.3°F-6.5°C 36% 4.9 mph ESE7.9 kmh ESE 4.9 mph7.9 kmh 29.19 in988.5 mb 0.00 in0.0 mm 0.00 in/hr0.0 mm/hr 0.02 in0.5 mm
03:07 PM 46.9°F8.3°C 19.8°F-6.8°C 34% 9.7 mph E15.6 kmh E 11.6 mph18.7 kmh 29.19 in988.5 mb 0.00 in0.0 mm 0.00 in/hr0.0 mm/hr 0.02 in0.5 mm
03:12 PM 47.4°F8.6°C 20.3°F-6.5°C 34% 2.4 mph SE3.9 kmh SE 11.6 mph18.7 kmh 29.20 in988.8 mb 0.00 in0.0 mm 0.00 in/hr0.0 mm/hr 0.02 in0.5 mm
03:17 PM 47.3°F8.5°C 20.1°F-6.6°C 34% 2.7 mph WSW4.3 kmh WSW 8.9 mph14.3 kmh 29.20 in988.8 mb 0.00 in0.0 mm 0.00 in/hr0.0 mm/hr 0.02 in0.5 mm
03:22 PM 46.9°F8.3°C 21.1°F-6.1°C 36% 4.4 mph 7.1 kmh 4.6 mph7.4 kmh 29.21 in989.2 mb 0.00 in0.0 mm 0.00 in/hr0.0 mm/hr 0.02 in0.5 mm
03:27 PM 46.9°F8.3°C 19.8°F-6.8°C 34% 4.1 mph NNW6.6 kmh NNW 5.5 mph8.9 kmh 29.21 in989.2 mb 0.00 in0.0 mm 0.00 in/hr0.0 mm/hr 0.02 in0.5 mm
03:32 PM 46.9°F8.3°C 19.1°F-7.2°C 33% 6.9 mph E11.1 kmh E 8.0 mph12.9 kmh 29.22 in989.5 mb 0.00 in0.0 mm 0.00 in/hr0.0 mm/hr 0.02 in0.5 mm
03:37 PM 46.9°F8.3°C 20.5°F-6.4°C 35% 1.1 mph E1.8 kmh E 15.8 mph25.4 kmh 29.22 in989.5 mb 0.00 in0.0 mm 0.00 in/hr0.0 mm/hr 0.02 in0.5 mm
03:42 PM 46.2°F7.9°C 20.5°F-6.4°C 36% 5.0 mph SW8.0 kmh SW 15.8 mph25.4 kmh 29.22 in989.5 mb 0.00 in0.0 mm 0.00 in/hr0.0 mm/hr 0.02 in0.5 mm
03:47 PM 46.0°F7.8°C 21.0°F-6.1°C 37% 1.5 mph WSW2.4 kmh WSW 5.5 mph8.9 kmh 29.23 in989.8 mb 0.00 in0.0 mm 0.00 in/hr0.0 mm/hr 0.02 in0.5 mm
03:52 PM 45.8°F7.7°C 22.2°F-5.4°C 39% 2.2 mph SSE3.5 kmh SSE 5.5 mph8.9 kmh 29.22 in989.5 mb 0.00 in0.0 mm 0.00 in/hr0.0 mm/hr 0.02 in0.5 mm
03:57 PM 45.3°F7.4°C 24.0°F-4.4°C 43% 2.0 mph W3.2 kmh W 5.5 mph8.9 kmh 29.22 in989.5 mb 0.00 in0.0 mm 0.00 in/hr0.0 mm/hr 0.02 in0.5 mm
04:02 PM 45.1°F7.3°C 23.8°F-4.6°C 43% 2.1 mph W3.4 kmh W 3.3 mph5.3 kmh 29.22 in989.5 mb 0.00 in0.0 mm 0.00 in/hr0.0 mm/hr 0.02 in0.5 mm
04:07 PM 45.3°F7.4°C 21.0°F-6.1°C 38% 3.0 mph NNW4.8 kmh NNW 5.5 mph8.9 kmh 29.23 in989.8 mb 0.00 in0.0 mm 0.00 in/hr0.0 mm/hr 0.02 in0.5 mm
04:12 PM 45.5°F7.5°C 20.5°F-6.4°C 37% 3.4 mph SSE5.5 kmh SSE 5.5 mph8.9 kmh 29.24 in990.2 mb 0.00 in0.0 mm 0.00 in/hr0.0 mm/hr 0.02 in0.5 mm
04:17 PM 45.6°F7.6°C 22.0°F-5.6°C 39% 5.8 mph SSE9.3 kmh SSE 10.9 mph17.5 kmh 29.24 in990.2 mb 0.00 in0.0 mm 0.00 in/hr0.0 mm/hr 0.02 in0.5 mm
04:22 PM 44.7°F7.1°C 22.9°F-5.1°C 42% 1.1 mph N1.8 kmh N 10.9 mph17.5 kmh 29.25 in990.5 mb 0.00 in0.0 mm 0.00 in/hr0.0 mm/hr 0.02 in0.5 mm
04:27 PM 44.4°F6.9°C 19.5°F-6.9°C 37% 4.3 mph NW6.9 kmh NW 6.2 mph10.0 kmh 29.26 in990.9 mb 0.00 in0.0 mm 0.00 in/hr0.0 mm/hr 0.02 in0.5 mm
04:32 PM 44.4°F6.9°C 22.1°F-5.5°C 41% 2.9 mph S4.7 kmh S 6.2 mph10.0 kmh 29.25 in990.5 mb 0.00 in0.0 mm 0.00 in/hr0.0 mm/hr 0.02 in0.5 mm
04:37 PM 44.2°F6.8°C 21.9°F-5.6°C 41% 4.1 mph NW6.6 kmh NW 9.8 mph15.8 kmh 29.24 in990.2 mb 0.00 in0.0 mm 0.00 in/hr0.0 mm/hr 0.02 in0.5 mm
04:42 PM 45.1°F7.3°C 20.8°F-6.2°C 38% 6.5 mph SW10.5 kmh SW 10.2 mph16.4 kmh 29.26 in990.9 mb 0.00 in0.0 mm 0.00 in/hr0.0 mm/hr 0.02 in0.5 mm
04:48 PM 44.7°F7.1°C 22.4°F-5.3°C 41% 6.0 mph NW9.7 kmh NW 10.2 mph16.4 kmh 29.25 in990.5 mb 0.00 in0.0 mm 0.00 in/hr0.0 mm/hr 0.02 in0.5 mm
04:53 PM 45.3°F7.4°C 17.7°F-7.9°C 33% 5.5 mph N8.9 kmh N 10.5 mph16.9 kmh 29.27 in991.2 mb 0.00 in0.0 mm 0.00 in/hr0.0 mm/hr 0.02 in0.5 mm
04:58 PM 45.5°F7.5°C 17.2°F-8.2°C 32% 2.5 mph SSW4.0 kmh SSW 10.5 mph16.9 kmh 29.26 in990.9 mb 0.00 in0.0 mm 0.00 in/hr0.0 mm/hr 0.02 in0.5 mm
05:03 PM 46.0°F7.8°C 17.7°F-7.9°C 33% 0.4 mph SSW0.6 kmh SSW 9.6 mph15.4 kmh 29.27 in991.2 mb 0.00 in0.0 mm 0.00 in/hr0.0 mm/hr 0.02 in0.5 mm
05:08 PM 44.4°F6.9°C 20.2°F-6.6°C 38% 0.4 mph SSE0.6 kmh SSE 9.6 mph15.4 kmh 29.28 in991.5 mb 0.00 in0.0 mm 0.00 in/hr0.0 mm/hr 0.02 in0.5 mm
05:13 PM 44.7°F7.1°C 19.9°F-6.7°C 37% 3.1 mph ENE5.0 kmh ENE 6.0 mph9.7 kmh 29.29 in991.9 mb 0.00 in0.0 mm 0.00 in/hr0.0 mm/hr 0.02 in0.5 mm
05:18 PM 44.7°F7.1°C 18.5°F-7.5°C 39% 2.4 mph N3.9 kmh N 6.0 mph9.7 kmh 29.28 in991.5 mb 0.00 in0.0 mm 0.00 in/hr0.0 mm/hr 0.02 in0.5 mm
05:23 PM 44.4°F6.9°C 21.5°F-5.8°C 40% 2.0 mph WNW3.2 kmh WNW 6.0 mph9.7 kmh 29.29 in991.9 mb 0.00 in0.0 mm 0.00 in/hr0.0 mm/hr 0.02 in0.5 mm
05:28 PM 43.3°F6.3°C 22.7°F-5.2°C 44% 1.1 mph NW1.8 kmh NW 2.4 mph3.9 kmh 29.28 in991.5 mb 0.00 in0.0 mm 0.00 in/hr0.0 mm/hr 0.02 in0.5 mm
05:33 PM 42.6°F5.9°C 23.1°F-4.9°C 46% 5.1 mph NNE8.2 kmh NNE 5.1 mph8.2 kmh 29.29 in991.9 mb 0.00 in0.0 mm 0.00 in/hr0.0 mm/hr 0.02 in0.5 mm
05:38 PM 42.4°F5.8°C 20.8°F-6.2°C 42% 4.6 mph SE7.4 kmh SE 5.5 mph8.9 kmh 29.29 in991.9 mb 0.00 in0.0 mm 0.00 in/hr0.0 mm/hr 0.02 in0.5 mm
05:43 PM 42.8°F6.0°C 21.7°F-5.7°C 43% 3.2 mph W5.1 kmh W 5.5 mph8.9 kmh 29.28 in991.5 mb 0.00 in0.0 mm 0.00 in/hr0.0 mm/hr 0.02 in0.5 mm
05:48 PM 43.1°F6.2°C 21.5°F-5.8°C 42% 4.7 mph WSW7.6 kmh WSW 6.9 mph11.1 kmh 29.29 in991.9 mb 0.00 in0.0 mm 0.00 in/hr0.0 mm/hr 0.02 in0.5 mm
05:53 PM 42.9°F6.1°C 20.2°F-6.6°C 40% 4.6 mph WSW7.4 kmh WSW 9.1 mph14.6 kmh 29.31 in992.6 mb 0.00 in0.0 mm 0.00 in/hr0.0 mm/hr 0.02 in0.5 mm
05:58 PM 43.5°F6.4°C 21.8°F-5.7°C 42% 2.6 mph WNW4.2 kmh WNW 13.4 mph21.6 kmh 29.31 in992.6 mb 0.00 in0.0 mm 0.00 in/hr0.0 mm/hr 0.02 in0.5 mm
06:03 PM 42.9°F6.1°C 20.2°F-6.6°C 40% 1.8 mph SSW2.9 kmh SSW 13.4 mph21.6 kmh 29.30 in992.2 mb 0.00 in0.0 mm 0.00 in/hr0.0 mm/hr 0.02 in0.5 mm
06:08 PM 42.8°F6.0°C 20.6°F-6.3°C 41% 4.0 mph E6.4 kmh E 9.1 mph14.6 kmh 29.31 in992.6 mb 0.00 in0.0 mm 0.00 in/hr0.0 mm/hr 0.02 in0.5 mm
06:13 PM 42.4°F5.8°C 20.3°F-6.5°C 41% 2.5 mph WSW4.0 kmh WSW 5.1 mph8.2 kmh 29.31 in992.6 mb 0.00 in0.0 mm 0.00 in/hr0.0 mm/hr 0.02 in0.5 mm
06:18 PM 42.9°F6.1°C 20.8°F-6.2°C 41% 2.9 mph SW4.7 kmh SW 5.1 mph8.2 kmh 29.31 in992.6 mb 0.00 in0.0 mm 0.00 in/hr0.0 mm/hr 0.02 in0.5 mm
06:23 PM 42.4°F5.8°C 17.8°F-7.9°C 37% 2.6 mph SSW4.2 kmh SSW 5.5 mph8.9 kmh 29.32 in992.9 mb 0.00 in0.0 mm 0.00 in/hr0.0 mm/hr 0.02 in0.5 mm
06:28 PM 43.7°F6.5°C 18.9°F-7.3°C 37% 3.5 mph S5.6 kmh S 9.1 mph14.6 kmh 29.32 in992.9 mb 0.00 in0.0 mm 0.00 in/hr0.0 mm/hr 0.02 in0.5 mm
06:33 PM 42.6°F5.9°C 21.0°F-6.1°C 42% 2.4 mph W3.9 kmh W 9.1 mph14.6 kmh 29.32 in992.9 mb 0.00 in0.0 mm 0.00 in/hr0.0 mm/hr 0.02 in0.5 mm
06:38 PM 43.1°F6.2°C 17.7°F-7.9°C 36% 3.8 mph SW6.1 kmh SW 4.2 mph6.8 kmh 29.33 in993.2 mb 0.00 in0.0 mm 0.00 in/hr0.0 mm/hr 0.02 in0.5 mm
06:43 PM 43.1°F6.2°C 20.9°F-6.2°C 41% 2.7 mph NW4.3 kmh NW 6.0 mph9.7 kmh 29.34 in993.6 mb 0.00 in0.0 mm 0.00 in/hr0.0 mm/hr 0.02 in0.5 mm
06:48 PM 43.3°F6.3°C 19.9°F-6.7°C 39% 5.1 mph WSW8.2 kmh WSW 8.9 mph14.3 kmh 29.33 in993.2 mb 0.00 in0.0 mm 0.00 in/hr0.0 mm/hr 0.02 in0.5 mm
06:53 PM 43.1°F6.2°C 18.4°F-7.6°C 38% 3.1 mph WNW5.0 kmh WNW 8.9 mph14.3 kmh 29.34 in993.6 mb 0.00 in0.0 mm 0.00 in/hr0.0 mm/hr 0.02 in0.5 mm
06:58 PM 42.6°F5.9°C 19.9°F-6.7°C 40% 2.7 mph S4.3 kmh S 8.5 mph13.7 kmh 29.34 in993.6 mb 0.00 in0.0 mm 0.00 in/hr0.0 mm/hr 0.02 in0.5 mm
07:03 PM 42.4°F5.8°C 19.7°F-6.8°C 40% 2.7 mph S4.3 kmh S 8.5 mph13.7 kmh 29.35 in993.9 mb 0.00 in0.0 mm 0.00 in/hr0.0 mm/hr 0.02 in0.5 mm
07:08 PM 42.4°F5.8°C 19.1°F-7.2°C 39% 3.9 mph WNW6.3 kmh WNW 5.1 mph8.2 kmh 29.35 in993.9 mb 0.00 in0.0 mm 0.00 in/hr0.0 mm/hr 0.02 in0.5 mm
07:13 PM 44.4°F6.9°C 15.5°F-9.2°C 31% 5.4 mph SW8.7 kmh SW 10.0 mph16.1 kmh 29.36 in994.2 mb 0.00 in0.0 mm 0.00 in/hr0.0 mm/hr 0.02 in0.5 mm
07:18 PM 43.8°F6.6°C 19.0°F-7.2°C 37% 1.8 mph W2.9 kmh W 10.0 mph16.1 kmh 29.35 in993.9 mb 0.00 in0.0 mm 0.00 in/hr0.0 mm/hr 0.02 in0.5 mm
07:23 PM 42.9°F6.1°C 18.2°F-7.7°C 37% 3.1 mph W5.0 kmh W 7.1 mph11.4 kmh 29.35 in993.9 mb 0.00 in0.0 mm 0.00 in/hr0.0 mm/hr 0.02 in0.5 mm
07:28 PM 43.3°F6.3°C 19.2°F-7.1°C 38% 1.7 mph WSW2.7 kmh WSW 7.1 mph11.4 kmh 29.35 in993.9 mb 0.00 in0.0 mm 0.00 in/hr0.0 mm/hr 0.02 in0.5 mm
07:33 PM 43.1°F6.2°C 16.4°F-8.7°C 34% 3.1 mph SW5.0 kmh SW 15.2 mph24.5 kmh 29.37 in994.6 mb 0.00 in0.0 mm 0.00 in/hr0.0 mm/hr 0.02 in0.5 mm
07:38 PM 44.7°F7.1°C 15.9°F-8.9°C 30% 3.8 mph S6.1 kmh S 15.8 mph25.4 kmh 29.37 in994.6 mb 0.00 in0.0 mm 0.00 in/hr0.0 mm/hr 0.02 in0.5 mm
07:43 PM 44.4°F6.9°C 15.5°F-9.2°C 31% 4.7 mph E7.6 kmh E 15.8 mph25.4 kmh 29.37 in994.6 mb 0.00 in0.0 mm 0.00 in/hr0.0 mm/hr 0.02 in0.5 mm
07:48 PM 44.4°F6.9°C 18.9°F-7.3°C 36% 6.2 mph SW10.0 kmh SW 10.5 mph16.9 kmh 29.38 in994.9 mb 0.00 in0.0 mm 0.00 in/hr0.0 mm/hr 0.02 in0.5 mm
07:53 PM 44.4°F6.9°C 16.2°F-8.8°C 32% 4.4 mph NW7.1 kmh NW 10.5 mph16.9 kmh 29.38 in994.9 mb 0.00 in0.0 mm 0.00 in/hr0.0 mm/hr 0.02 in0.5 mm
07:59 PM 44.4°F6.9°C 16.2°F-8.8°C 32% 3.3 mph SSW5.3 kmh SSW 5.3 mph8.5 kmh 29.38 in994.9 mb 0.00 in0.0 mm 0.00 in/hr0.0 mm/hr 0.02 in0.5 mm
08:03 PM 44.4°F6.9°C 15.5°F-9.2°C 31% 7.0 mph NE11.3 kmh NE 9.1 mph14.6 kmh 29.37 in994.6 mb 0.00 in0.0 mm 0.00 in/hr0.0 mm/hr 0.02 in0.5 mm
08:08 PM 44.9°F7.2°C 14.5°F-9.7°C 29% 6.7 mph N10.8 kmh N 10.9 mph17.5 kmh 29.37 in994.6 mb 0.00 in0.0 mm 0.00 in/hr0.0 mm/hr 0.02 in0.5 mm
08:13 PM 45.1°F7.3°C 16.2°F-8.8°C 33% 2.5 mph SSE4.0 kmh SSE 10.9 mph17.5 kmh 29.37 in994.6 mb 0.00 in0.0 mm 0.00 in/hr0.0 mm/hr 0.02 in0.5 mm
08:19 PM 44.4°F6.9°C 16.2°F-8.8°C 32% 3.2 mph WNW5.1 kmh WNW 11.6 mph18.7 kmh 29.37 in994.6 mb 0.00 in0.0 mm 0.00 in/hr0.0 mm/hr 0.02 in0.5 mm
08:24 PM 43.3°F6.3°C 21.1°F-6.1°C 41% 4.3 mph WSW6.9 kmh WSW 11.6 mph18.7 kmh 29.37 in994.6 mb 0.00 in0.0 mm 0.00 in/hr0.0 mm/hr 0.02 in0.5 mm
08:29 PM 42.6°F5.9°C 19.9°F-6.7°C 40% 1.9 mph N3.1 kmh N 5.5 mph8.9 kmh 29.38 in994.9 mb 0.00 in0.0 mm 0.00 in/hr0.0 mm/hr 0.02 in0.5 mm
08:34 PM 43.3°F6.3°C 17.2°F-8.2°C 35% 1.5 mph WNW2.4 kmh WNW 4.0 mph6.4 kmh 29.40 in995.6 mb 0.00 in0.0 mm 0.00 in/hr0.0 mm/hr 0.02 in0.5 mm
08:39 PM 42.0°F5.6°C 19.4°F-7.0°C 40% 2.8 mph N4.5 kmh N 2.9 mph4.7 kmh 29.40 in995.6 mb 0.00 in0.0 mm 0.00 in/hr0.0 mm/hr 0.02 in0.5 mm
08:44 PM 42.0°F5.6°C 20.0°F-6.7°C 43% 4.6 mph WSW7.4 kmh WSW 8.5 mph13.7 kmh 29.40 in995.6 mb 0.00 in0.0 mm 0.00 in/hr0.0 mm/hr 0.02 in0.5 mm
08:49 PM 43.3°F6.3°C 17.9°F-7.8°C 36% 7.1 mph WSW11.4 kmh WSW 15.4 mph24.8 kmh 29.41 in995.9 mb 0.00 in0.0 mm 0.00 in/hr0.0 mm/hr 0.02 in0.5 mm
08:54 PM 44.2°F6.8°C 17.4°F-8.1°C 35% 2.9 mph W4.7 kmh W 15.4 mph24.8 kmh 29.42 in996.3 mb 0.00 in0.0 mm 0.00 in/hr0.0 mm/hr 0.02 in0.5 mm
08:59 PM 43.8°F6.6°C 18.4°F-7.6°C 36% 2.7 mph NW4.3 kmh NW 10.0 mph16.1 kmh 29.44 in997.0 mb 0.00 in0.0 mm 0.00 in/hr0.0 mm/hr 0.02 in0.5 mm
09:04 PM 43.8°F6.6°C 18.4°F-7.6°C 34% 2.1 mph SE3.4 kmh SE 7.1 mph11.4 kmh 29.42 in996.3 mb 0.00 in0.0 mm 0.00 in/hr0.0 mm/hr 0.02 in0.5 mm
09:09 PM 42.0°F5.6°C 20.0°F-6.7°C 41% 1.0 mph W1.6 kmh W 3.5 mph5.6 kmh 29.44 in997.0 mb 0.00 in0.0 mm 0.00 in/hr0.0 mm/hr 0.02 in0.5 mm
09:14 PM 42.4°F5.8°C 17.8°F-7.9°C 37% 2.7 mph SSW4.3 kmh SSW 10.7 mph17.2 kmh 29.44 in997.0 mb 0.00 in0.0 mm 0.00 in/hr0.0 mm/hr 0.02 in0.5 mm
09:19 PM 42.6°F5.9°C 17.9°F-7.8°C 37% 3.5 mph NW5.6 kmh NW 10.7 mph17.2 kmh 29.43 in996.6 mb 0.00 in0.0 mm 0.00 in/hr0.0 mm/hr 0.02 in0.5 mm
09:24 PM 42.0°F5.6°C 20.5°F-6.4°C 42% 3.1 mph SW5.0 kmh SW 6.7 mph10.8 kmh 29.45 in997.3 mb 0.00 in0.0 mm 0.00 in/hr0.0 mm/hr 0.02 in0.5 mm
09:29 PM 42.0°F5.6°C 18.1°F-7.7°C 38% 3.6 mph NW5.8 kmh NW 12.5 mph20.1 kmh 29.45 in997.3 mb 0.00 in0.0 mm 0.00 in/hr0.0 mm/hr 0.02 in0.5 mm
09:34 PM 42.9°F6.1°C 16.9°F-8.4°C 35% 4.5 mph NW7.2 kmh NW 12.9 mph20.8 kmh 29.45 in997.3 mb 0.00 in0.0 mm 0.00 in/hr0.0 mm/hr 0.02 in0.5 mm
09:39 PM 43.3°F6.3°C 15.9°F-8.9°C 33% 6.9 mph SW11.1 kmh SW 12.9 mph20.8 kmh 29.45 in997.3 mb 0.00 in0.0 mm 0.00 in/hr0.0 mm/hr 0.02 in0.5 mm
09:44 PM 43.1°F6.2°C 18.4°F-7.6°C 37% 4.2 mph NNE6.8 kmh NNE 8.7 mph14.0 kmh 29.45 in997.3 mb 0.00 in0.0 mm 0.00 in/hr0.0 mm/hr 0.02 in0.5 mm
09:49 PM 42.9°F6.1°C 16.9°F-8.4°C 35% 2.7 mph WNW4.3 kmh WNW 8.7 mph14.0 kmh 29.46 in997.6 mb 0.00 in0.0 mm 0.00 in/hr0.0 mm/hr 0.02 in0.5 mm
09:54 PM 42.9°F6.1°C 16.9°F-8.4°C 35% 3.9 mph NNW6.3 kmh NNW 6.7 mph10.8 kmh 29.46 in997.6 mb 0.00 in0.0 mm 0.00 in/hr0.0 mm/hr 0.02 in0.5 mm
09:59 PM 43.3°F6.3°C 16.6°F-8.6°C 34% 5.0 mph W8.0 kmh W 8.2 mph13.2 kmh 29.46 in997.6 mb 0.00 in0.0 mm 0.00 in/hr0.0 mm/hr 0.02 in0.5 mm
10:04 PM 42.9°F6.1°C 16.9°F-8.4°C 35% 2.2 mph WSW3.5 kmh WSW 8.2 mph13.2 kmh 29.45 in997.3 mb 0.00 in0.0 mm 0.00 in/hr0.0 mm/hr 0.02 in0.5 mm
10:09 PM 43.3°F6.3°C 15.2°F-9.3°C 32% 1.0 mph N1.6 kmh N 4.2 mph6.8 kmh 29.45 in997.3 mb 0.00 in0.0 mm 0.00 in/hr0.0 mm/hr 0.02 in0.5 mm
10:14 PM 43.1°F6.2°C 15.7°F-9.1°C 33% 2.1 mph WNW3.4 kmh WNW 2.9 mph4.7 kmh 29.45 in997.3 mb 0.00 in0.0 mm 0.00 in/hr0.0 mm/hr 0.02 in0.5 mm
10:19 PM 42.9°F6.1°C 14.9°F-9.5°C 32% 2.2 mph WNW3.5 kmh WNW 6.0 mph9.7 kmh 29.45 in997.3 mb 0.00 in0.0 mm 0.00 in/hr0.0 mm/hr 0.02 in0.5 mm
10:24 PM 43.3°F6.3°C 16.6°F-8.6°C 34% 4.2 mph W6.8 kmh W 8.2 mph13.2 kmh 29.46 in997.6 mb 0.00 in0.0 mm 0.00 in/hr0.0 mm/hr 0.02 in0.5 mm
10:29 PM 43.8°F6.6°C 16.4°F-8.7°C 33% 6.4 mph WSW10.3 kmh WSW 10.7 mph17.2 kmh 29.46 in997.6 mb 0.00 in0.0 mm 0.00 in/hr0.0 mm/hr 0.02 in0.5 mm
10:34 PM 43.7°F6.5°C 16.2°F-8.8°C 33% 6.3 mph WNW10.1 kmh WNW 10.7 mph17.2 kmh 29.45 in997.3 mb 0.00 in0.0 mm 0.00 in/hr0.0 mm/hr 0.02 in0.5 mm
10:39 PM 43.5°F6.4°C 16.7°F-8.5°C 31% 3.5 mph SSE5.6 kmh SSE 9.8 mph15.8 kmh 29.46 in997.6 mb 0.00 in0.0 mm 0.00 in/hr0.0 mm/hr 0.02 in0.5 mm
10:44 PM 43.3°F6.3°C 17.2°F-8.2°C 35% 1.7 mph E2.7 kmh E 4.9 mph7.9 kmh 29.47 in998.0 mb 0.00 in0.0 mm 0.00 in/hr0.0 mm/hr 0.02 in0.5 mm
10:49 PM 42.9°F6.1°C 16.2°F-8.8°C 34% 3.0 mph NNW4.8 kmh NNW 6.7 mph10.8 kmh 29.47 in998.0 mb 0.00 in0.0 mm 0.00 in/hr0.0 mm/hr 0.02 in0.5 mm
10:54 PM 43.5°F6.4°C 15.4°F-9.2°C 32% 4.0 mph SSW6.4 kmh SSW 7.1 mph11.4 kmh 29.46 in997.6 mb 0.00 in0.0 mm 0.00 in/hr0.0 mm/hr 0.02 in0.5 mm
10:59 PM 43.3°F6.3°C 17.9°F-7.8°C 36% 3.1 mph WSW5.0 kmh WSW 7.1 mph11.4 kmh 29.46 in997.6 mb 0.00 in0.0 mm 0.00 in/hr0.0 mm/hr 0.02 in0.5 mm
11:04 PM 42.2°F5.7°C 19.6°F-6.9°C 40% 2.8 mph W4.5 kmh W 4.0 mph6.4 kmh 29.47 in998.0 mb 0.00 in0.0 mm 0.00 in/hr0.0 mm/hr 0.02 in0.5 mm
11:09 PM 41.7°F5.4°C 17.1°F-8.3°C 37% 3.5 mph WSW5.6 kmh WSW 4.6 mph7.4 kmh 29.47 in998.0 mb 0.00 in0.0 mm 0.00 in/hr0.0 mm/hr 0.02 in0.5 mm
11:14 PM 42.8°F6.0°C 17.4°F-8.1°C 36% 2.3 mph SSE3.7 kmh SSE 6.2 mph10.0 kmh 29.48 in998.3 mb 0.00 in0.0 mm 0.00 in/hr0.0 mm/hr 0.02 in0.5 mm
11:19 PM 42.0°F5.6°C 16.1°F-8.8°C 35% 5.6 mph S9.0 kmh S 6.2 mph10.0 kmh 29.47 in998.0 mb 0.00 in0.0 mm 0.00 in/hr0.0 mm/hr 0.02 in0.5 mm
11:24 PM 43.7°F6.5°C 16.2°F-8.8°C 33% 5.6 mph NNW9.0 kmh NNW 6.9 mph11.1 kmh 29.49 in998.6 mb 0.00 in0.0 mm 0.00 in/hr0.0 mm/hr 0.02 in0.5 mm
11:29 PM 42.9°F6.1°C 16.2°F-8.8°C 34% 5.2 mph ENE8.4 kmh ENE 7.3 mph11.7 kmh 29.49 in998.6 mb 0.00 in0.0 mm 0.00 in/hr0.0 mm/hr 0.02 in0.5 mm
11:34 PM 43.1°F6.2°C 15.1°F-9.4°C 32% 2.1 mph NW3.4 kmh NW 7.3 mph11.7 kmh 29.48 in998.3 mb 0.00 in0.0 mm 0.00 in/hr0.0 mm/hr 0.02 in0.5 mm
11:39 PM 43.7°F6.5°C 15.6°F-9.1°C 32% 1.7 mph SE2.7 kmh SE 10.2 mph16.4 kmh 29.47 in998.0 mb 0.00 in0.0 mm 0.00 in/hr0.0 mm/hr 0.02 in0.5 mm
11:44 PM 43.3°F6.3°C 15.9°F-8.9°C 33% 4.1 mph WNW6.6 kmh WNW 15.2 mph24.5 kmh 29.47 in998.0 mb 0.00 in0.0 mm 0.00 in/hr0.0 mm/hr 0.02 in0.5 mm
11:49 PM 42.9°F6.1°C 16.2°F-8.8°C 34% 2.7 mph ENE4.3 kmh ENE 15.2 mph24.5 kmh 29.47 in998.0 mb 0.00 in0.0 mm 0.00 in/hr0.0 mm/hr 0.02 in0.5 mm
11:54 PM 42.2°F5.7°C 16.3°F-8.7°C 35% 2.8 mph NNE4.5 kmh NNE 4.2 mph6.8 kmh 29.47 in998.0 mb 0.00 in0.0 mm 0.00 in/hr0.0 mm/hr 0.02 in0.5 mm
11:59 PM 42.6°F5.9°C 13.9°F-10.1°C 31% 7.6 mph E12.2 kmh E 10.0 mph16.1 kmh 29.48 in998.3 mb 0.00 in0.0 mm 0.00 in/hr0.0 mm/hr 0.02 in0.5 mm